sensor_id;sensor_type;location;lat;lon;timestamp;P1;durP1;ratioP1;P2;durP2;ratioP2
72771;SDS011;60894;42.544;1.516;2023-01-26T00:02:22;5.60;;;2.00;;
72771;SDS011;60894;42.544;1.516;2023-01-26T00:04:49;4.60;;;1.60;;
72771;SDS011;60894;42.544;1.516;2023-01-26T00:07:16;4.95;;;1.35;;
72771;SDS011;60894;42.544;1.516;2023-01-26T00:09:44;3.85;;;1.40;;
72771;SDS011;60894;42.544;1.516;2023-01-26T00:12:11;3.38;;;1.20;;
72771;SDS011;60894;42.544;1.516;2023-01-26T00:14:40;1.43;;;0.60;;
72771;SDS011;60894;42.544;1.516;2023-01-26T00:17:16;4.82;;;1.00;;
72771;SDS011;60894;42.544;1.516;2023-01-26T00:19:51;6.95;;;1.70;;
72771;SDS011;60894;42.544;1.516;2023-01-26T00:22:19;4.07;;;1.23;;
72771;SDS011;60894;42.544;1.516;2023-01-26T00:24:46;2.88;;;0.90;;
72771;SDS011;60894;42.544;1.516;2023-01-26T00:27:14;2.07;;;0.50;;
72771;SDS011;60894;42.544;1.516;2023-01-26T00:29:42;2.40;;;0.95;;
72771;SDS011;60894;42.544;1.516;2023-01-26T00:32:09;3.47;;;1.10;;
72771;SDS011;60894;42.544;1.516;2023-01-26T00:34:36;7.10;;;1.60;;
72771;SDS011;60894;42.544;1.516;2023-01-26T00:37:03;1.95;;;0.85;;
72771;SDS011;60894;42.544;1.516;2023-01-26T00:39:30;3.60;;;0.93;;
72771;SDS011;60894;42.544;1.516;2023-01-26T00:41:58;4.22;;;0.98;;
72771;SDS011;60894;42.544;1.516;2023-01-26T00:44:38;3.38;;;0.90;;
72771;SDS011;60894;42.544;1.516;2023-01-26T00:47:09;3.33;;;0.80;;
72771;SDS011;60894;42.544;1.516;2023-01-26T00:49:37;4.82;;;1.20;;
72771;SDS011;60894;42.544;1.516;2023-01-26T00:52:04;4.83;;;1.20;;
72771;SDS011;60894;42.544;1.516;2023-01-26T00:54:31;4.10;;;1.40;;
72771;SDS011;60894;42.544;1.516;2023-01-26T00:56:58;4.38;;;1.20;;
72771;SDS011;60894;42.544;1.516;2023-01-26T00:59:26;2.55;;;1.08;;
72771;SDS011;60894;42.544;1.516;2023-01-26T01:01:53;3.45;;;0.93;;
72771;SDS011;60894;42.544;1.516;2023-01-26T01:04:23;3.50;;;0.90;;
72771;SDS011;60894;42.544;1.516;2023-01-26T01:06:51;3.58;;;1.05;;
72771;SDS011;60894;42.544;1.516;2023-01-26T01:09:18;2.83;;;0.90;;
72771;SDS011;60894;42.544;1.516;2023-01-26T01:11:45;4.55;;;0.93;;
72771;SDS011;60894;42.544;1.516;2023-01-26T01:14:12;3.10;;;0.90;;
72771;SDS011;60894;42.544;1.516;2023-01-26T01:16:40;3.97;;;1.10;;
72771;SDS011;60894;42.544;1.516;2023-01-26T01:19:07;2.58;;;0.85;;
72771;SDS011;60894;42.544;1.516;2023-01-26T01:21:39;4.50;;;1.00;;
72771;SDS011;60894;42.544;1.516;2023-01-26T01:24:06;5.00;;;1.25;;
72771;SDS011;60894;42.544;1.516;2023-01-26T01:26:34;3.85;;;1.40;;
72771;SDS011;60894;42.544;1.516;2023-01-26T01:29:01;3.70;;;0.90;;
72771;SDS011;60894;42.544;1.516;2023-01-26T01:31:28;3.50;;;1.13;;
72771;SDS011;60894;42.544;1.516;2023-01-26T01:33:55;2.08;;;0.75;;
72771;SDS011;60894;42.544;1.516;2023-01-26T01:36:22;4.38;;;1.05;;
72771;SDS011;60894;42.544;1.516;2023-01-26T01:38:51;3.88;;;1.30;;
72771;SDS011;60894;42.544;1.516;2023-01-26T01:41:20;4.77;;;1.20;;
72771;SDS011;60894;42.544;1.516;2023-01-26T01:43:48;3.45;;;1.15;;
72771;SDS011;60894;42.544;1.516;2023-01-26T01:46:20;1.85;;;0.73;;
72771;SDS011;60894;42.544;1.516;2023-01-26T01:48:52;2.83;;;0.90;;
72771;SDS011;60894;42.544;1.516;2023-01-26T01:51:27;3.78;;;1.20;;
72771;SDS011;60894;42.544;1.516;2023-01-26T01:54:00;3.50;;;1.00;;
72771;SDS011;60894;42.544;1.516;2023-01-26T01:56:31;3.45;;;0.77;;
72771;SDS011;60894;42.544;1.516;2023-01-26T01:58:59;5.15;;;0.80;;
72771;SDS011;60894;42.544;1.516;2023-01-26T02:01:29;1.67;;;0.73;;
72771;SDS011;60894;42.544;1.516;2023-01-26T02:03:58;3.35;;;0.85;;
72771;SDS011;60894;42.544;1.516;2023-01-26T02:06:28;3.83;;;0.80;;
72771;SDS011;60894;42.544;1.516;2023-01-26T02:09:00;3.22;;;0.80;;
72771;SDS011;60894;42.544;1.516;2023-01-26T02:11:32;1.95;;;0.57;;
72771;SDS011;60894;42.544;1.516;2023-01-26T02:14:04;1.80;;;0.70;;
72771;SDS011;60894;42.544;1.516;2023-01-26T02:16:33;3.22;;;0.90;;
72771;SDS011;60894;42.544;1.516;2023-01-26T02:19:00;2.07;;;0.80;;
72771;SDS011;60894;42.544;1.516;2023-01-26T02:21:28;3.90;;;0.90;;
72771;SDS011;60894;42.544;1.516;2023-01-26T02:24:03;2.30;;;0.80;;
72771;SDS011;60894;42.544;1.516;2023-01-26T02:26:37;1.38;;;0.70;;
72771;SDS011;60894;42.544;1.516;2023-01-26T02:29:05;1.98;;;0.80;;
72771;SDS011;60894;42.544;1.516;2023-01-26T02:31:34;3.13;;;0.80;;
72771;SDS011;60894;42.544;1.516;2023-01-26T02:34:03;5.03;;;0.90;;
72771;SDS011;60894;42.544;1.516;2023-01-26T02:36:31;2.55;;;0.93;;
72771;SDS011;60894;42.544;1.516;2023-01-26T02:39:03;3.80;;;0.77;;
72771;SDS011;60894;42.544;1.516;2023-01-26T02:41:42;1.10;;;0.47;;
72771;SDS011;60894;42.544;1.516;2023-01-26T02:44:28;2.30;;;0.60;;
72771;SDS011;60894;42.544;1.516;2023-01-26T02:46:56;3.33;;;0.70;;
72771;SDS011;60894;42.544;1.516;2023-01-26T02:49:23;3.65;;;0.90;;
72771;SDS011;60894;42.544;1.516;2023-01-26T02:52:07;4.45;;;0.93;;
72771;SDS011;60894;42.544;1.516;2023-01-26T02:54:34;3.20;;;0.70;;
72771;SDS011;60894;42.544;1.516;2023-01-26T02:57:20;2.17;;;0.60;;
72771;SDS011;60894;42.544;1.516;2023-01-26T02:59:47;0.68;;;0.40;;
72771;SDS011;60894;42.544;1.516;2023-01-26T03:02:14;2.67;;;0.60;;
72771;SDS011;60894;42.544;1.516;2023-01-26T03:04:41;1.92;;;0.55;;
72771;SDS011;60894;42.544;1.516;2023-01-26T03:07:08;2.45;;;0.90;;
72771;SDS011;60894;42.544;1.516;2023-01-26T03:09:36;0.73;;;0.40;;
72771;SDS011;60894;42.544;1.516;2023-01-26T03:12:03;0.88;;;0.50;;
72771;SDS011;60894;42.544;1.516;2023-01-26T03:14:31;1.15;;;0.52;;
72771;SDS011;60894;42.544;1.516;2023-01-26T03:16:58;1.52;;;0.50;;
72771;SDS011;60894;42.544;1.516;2023-01-26T03:19:26;0.98;;;0.30;;
72771;SDS011;60894;42.544;1.516;2023-01-26T03:22:10;2.97;;;0.83;;
72771;SDS011;60894;42.544;1.516;2023-01-26T03:24:54;2.67;;;0.73;;
72771;SDS011;60894;42.544;1.516;2023-01-26T03:27:40;1.17;;;0.40;;
72771;SDS011;60894;42.544;1.516;2023-01-26T03:30:11;1.80;;;0.40;;
72771;SDS011;60894;42.544;1.516;2023-01-26T03:32:40;1.73;;;0.50;;
72771;SDS011;60894;42.544;1.516;2023-01-26T03:35:07;1.97;;;0.67;;
72771;SDS011;60894;42.544;1.516;2023-01-26T03:37:39;2.78;;;0.50;;
72771;SDS011;60894;42.544;1.516;2023-01-26T03:40:08;2.30;;;0.60;;
72771;SDS011;60894;42.544;1.516;2023-01-26T03:42:53;2.70;;;0.70;;
72771;SDS011;60894;42.544;1.516;2023-01-26T03:45:39;1.70;;;0.57;;
72771;SDS011;60894;42.544;1.516;2023-01-26T03:48:24;1.20;;;0.40;;
72771;SDS011;60894;42.544;1.516;2023-01-26T03:51:08;2.15;;;0.50;;
72771;SDS011;60894;42.544;1.516;2023-01-26T03:53:52;2.05;;;0.60;;
72771;SDS011;60894;42.544;1.516;2023-01-26T03:56:37;2.33;;;0.80;;
72771;SDS011;60894;42.544;1.516;2023-01-26T03:59:05;2.35;;;0.60;;
72771;SDS011;60894;42.544;1.516;2023-01-26T04:01:35;2.23;;;0.70;;
72771;SDS011;60894;42.544;1.516;2023-01-26T04:04:03;2.70;;;0.80;;
72771;SDS011;60894;42.544;1.516;2023-01-26T04:06:48;5.45;;;0.63;;
72771;SDS011;60894;42.544;1.516;2023-01-26T04:09:33;0.70;;;0.40;;
72771;SDS011;60894;42.544;1.516;2023-01-26T04:12:03;4.82;;;0.90;;
72771;SDS011;60894;42.544;1.516;2023-01-26T04:14:31;0.90;;;0.40;;
72771;SDS011;60894;42.544;1.516;2023-01-26T04:17:17;0.85;;;0.50;;
72771;SDS011;60894;42.544;1.516;2023-01-26T04:20:02;2.70;;;0.80;;
72771;SDS011;60894;42.544;1.516;2023-01-26T04:22:48;1.38;;;0.30;;
72771;SDS011;60894;42.544;1.516;2023-01-26T04:25:15;1.45;;;0.50;;
72771;SDS011;60894;42.544;1.516;2023-01-26T04:27:43;2.20;;;0.90;;
72771;SDS011;60894;42.544;1.516;2023-01-26T04:30:12;3.22;;;1.10;;
72771;SDS011;60894;42.544;1.516;2023-01-26T04:32:42;2.35;;;0.60;;
72771;SDS011;60894;42.544;1.516;2023-01-26T04:35:10;3.58;;;0.95;;
72771;SDS011;60894;42.544;1.516;2023-01-26T04:37:37;2.85;;;0.80;;
72771;SDS011;60894;42.544;1.516;2023-01-26T04:40:04;3.20;;;0.70;;
72771;SDS011;60894;42.544;1.516;2023-01-26T04:42:32;3.22;;;0.77;;
72771;SDS011;60894;42.544;1.516;2023-01-26T04:44:59;2.95;;;0.80;;
72771;SDS011;60894;42.544;1.516;2023-01-26T04:47:26;2.47;;;0.70;;
72771;SDS011;60894;42.544;1.516;2023-01-26T04:49:55;1.88;;;0.60;;
72771;SDS011;60894;42.544;1.516;2023-01-26T04:52:22;5.07;;;0.97;;
72771;SDS011;60894;42.544;1.516;2023-01-26T04:54:49;2.33;;;0.82;;
72771;SDS011;60894;42.544;1.516;2023-01-26T04:57:16;4.13;;;0.80;;
72771;SDS011;60894;42.544;1.516;2023-01-26T04:59:45;3.75;;;0.80;;
72771;SDS011;60894;42.544;1.516;2023-01-26T05:02:12;2.20;;;0.70;;
72771;SDS011;60894;42.544;1.516;2023-01-26T05:04:39;4.07;;;0.80;;
72771;SDS011;60894;42.544;1.516;2023-01-26T05:07:07;2.10;;;0.60;;
72771;SDS011;60894;42.544;1.516;2023-01-26T05:09:34;1.83;;;0.60;;
72771;SDS011;60894;42.544;1.516;2023-01-26T05:12:02;2.75;;;0.90;;
72771;SDS011;60894;42.544;1.516;2023-01-26T05:14:42;4.20;;;0.60;;
72771;SDS011;60894;42.544;1.516;2023-01-26T05:17:09;2.20;;;0.73;;
72771;SDS011;60894;42.544;1.516;2023-01-26T05:19:36;2.40;;;0.80;;
72771;SDS011;60894;42.544;1.516;2023-01-26T05:22:03;2.80;;;0.85;;
72771;SDS011;60894;42.544;1.516;2023-01-26T05:24:32;3.97;;;0.73;;
72771;SDS011;60894;42.544;1.516;2023-01-26T05:26:59;2.47;;;0.70;;
72771;SDS011;60894;42.544;1.516;2023-01-26T05:29:39;2.80;;;0.93;;
72771;SDS011;60894;42.544;1.516;2023-01-26T05:32:06;3.55;;;1.00;;
72771;SDS011;60894;42.544;1.516;2023-01-26T05:34:33;3.40;;;0.88;;
72771;SDS011;60894;42.544;1.516;2023-01-26T05:37:00;1.98;;;0.70;;
72771;SDS011;60894;42.544;1.516;2023-01-26T05:39:27;2.20;;;0.93;;
72771;SDS011;60894;42.544;1.516;2023-01-26T05:41:56;5.33;;;1.10;;
72771;SDS011;60894;42.544;1.516;2023-01-26T05:44:23;1.92;;;1.05;;
72771;SDS011;60894;42.544;1.516;2023-01-26T05:46:50;3.38;;;1.00;;
72771;SDS011;60894;42.544;1.516;2023-01-26T05:49:17;3.00;;;0.70;;
72771;SDS011;60894;42.544;1.516;2023-01-26T05:51:44;3.33;;;1.08;;
72771;SDS011;60894;42.544;1.516;2023-01-26T05:54:11;1.33;;;0.70;;
72771;SDS011;60894;42.544;1.516;2023-01-26T05:56:38;2.83;;;0.93;;
72771;SDS011;60894;42.544;1.516;2023-01-26T05:59:06;5.63;;;1.10;;
72771;SDS011;60894;42.544;1.516;2023-01-26T06:01:34;2.85;;;0.80;;
72771;SDS011;60894;42.544;1.516;2023-01-26T06:04:00;5.70;;;1.20;;
72771;SDS011;60894;42.544;1.516;2023-01-26T06:06:28;5.77;;;1.40;;
72771;SDS011;60894;42.544;1.516;2023-01-26T06:08:55;5.03;;;1.55;;
72771;SDS011;60894;42.544;1.516;2023-01-26T06:11:23;7.35;;;1.45;;
72771;SDS011;60894;42.544;1.516;2023-01-26T06:13:50;5.47;;;1.40;;
72771;SDS011;60894;42.544;1.516;2023-01-26T06:16:18;3.83;;;1.08;;
72771;SDS011;60894;42.544;1.516;2023-01-26T06:18:46;3.50;;;1.00;;
72771;SDS011;60894;42.544;1.516;2023-01-26T06:21:14;4.40;;;1.50;;
72771;SDS011;60894;42.544;1.516;2023-01-26T06:23:41;7.55;;;2.10;;
72771;SDS011;60894;42.544;1.516;2023-01-26T06:26:08;5.65;;;2.08;;
72771;SDS011;60894;42.544;1.516;2023-01-26T06:28:35;5.28;;;1.42;;
72771;SDS011;60894;42.544;1.516;2023-01-26T06:31:02;4.67;;;1.57;;
72771;SDS011;60894;42.544;1.516;2023-01-26T06:33:33;6.18;;;1.30;;
72771;SDS011;60894;42.544;1.516;2023-01-26T06:36:01;7.95;;;1.80;;
72771;SDS011;60894;42.544;1.516;2023-01-26T06:38:29;6.40;;;1.73;;
72771;SDS011;60894;42.544;1.516;2023-01-26T06:40:58;9.43;;;1.60;;
72771;SDS011;60894;42.544;1.516;2023-01-26T06:43:27;19.00;;;7.13;;
72771;SDS011;60894;42.544;1.516;2023-01-26T06:45:54;8.00;;;2.50;;
72771;SDS011;60894;42.544;1.516;2023-01-26T06:48:22;9.43;;;2.10;;
72771;SDS011;60894;42.544;1.516;2023-01-26T06:50:51;6.07;;;2.20;;
72771;SDS011;60894;42.544;1.516;2023-01-26T06:53:25;7.30;;;2.10;;
72771;SDS011;60894;42.544;1.516;2023-01-26T06:55:54;7.00;;;2.20;;
72771;SDS011;60894;42.544;1.516;2023-01-26T06:58:22;5.15;;;1.98;;
72771;SDS011;60894;42.544;1.516;2023-01-26T07:00:49;7.53;;;2.00;;
72771;SDS011;60894;42.544;1.516;2023-01-26T07:03:16;11.15;;;1.98;;
72771;SDS011;60894;42.544;1.516;2023-01-26T07:05:43;8.88;;;2.60;;
72771;SDS011;60894;42.544;1.516;2023-01-26T07:08:11;10.33;;;2.50;;
72771;SDS011;60894;42.544;1.516;2023-01-26T07:10:38;9.10;;;2.20;;
72771;SDS011;60894;42.544;1.516;2023-01-26T07:13:05;6.35;;;2.30;;
72771;SDS011;60894;42.544;1.516;2023-01-26T07:15:33;10.25;;;2.47;;
72771;SDS011;60894;42.544;1.516;2023-01-26T07:18:00;6.22;;;2.47;;
72771;SDS011;60894;42.544;1.516;2023-01-26T07:20:27;7.40;;;2.80;;
72771;SDS011;60894;42.544;1.516;2023-01-26T07:22:55;13.40;;;3.30;;
72771;SDS011;60894;42.544;1.516;2023-01-26T07:25:26;9.35;;;3.10;;
72771;SDS011;60894;42.544;1.516;2023-01-26T07:27:56;8.48;;;2.78;;
72771;SDS011;60894;42.544;1.516;2023-01-26T07:30:23;11.38;;;3.03;;
72771;SDS011;60894;42.544;1.516;2023-01-26T07:32:51;8.50;;;3.30;;
72771;SDS011;60894;42.544;1.516;2023-01-26T07:35:18;9.55;;;2.88;;
72771;SDS011;60894;42.544;1.516;2023-01-26T07:37:45;9.57;;;3.70;;
72771;SDS011;60894;42.544;1.516;2023-01-26T07:40:12;8.40;;;3.15;;
72771;SDS011;60894;42.544;1.516;2023-01-26T07:42:41;11.10;;;3.85;;
72771;SDS011;60894;42.544;1.516;2023-01-26T07:45:08;10.07;;;3.47;;
72771;SDS011;60894;42.544;1.516;2023-01-26T07:47:35;9.70;;;4.07;;
72771;SDS011;60894;42.544;1.516;2023-01-26T07:50:02;10.55;;;4.22;;
72771;SDS011;60894;42.544;1.516;2023-01-26T07:52:31;10.50;;;5.18;;
72771;SDS011;60894;42.544;1.516;2023-01-26T07:54:58;13.07;;;5.90;;
72771;SDS011;60894;42.544;1.516;2023-01-26T07:57:25;10.67;;;4.73;;
72771;SDS011;60894;42.544;1.516;2023-01-26T07:59:53;14.57;;;5.10;;
72771;SDS011;60894;42.544;1.516;2023-01-26T08:02:20;11.60;;;5.68;;
72771;SDS011;60894;42.544;1.516;2023-01-26T08:04:47;17.50;;;8.07;;
72771;SDS011;60894;42.544;1.516;2023-01-26T08:07:14;13.40;;;6.40;;
72771;SDS011;60894;42.544;1.516;2023-01-26T08:09:41;13.00;;;5.77;;
72771;SDS011;60894;42.544;1.516;2023-01-26T08:12:08;12.65;;;5.82;;
72771;SDS011;60894;42.544;1.516;2023-01-26T08:14:35;15.30;;;6.70;;
72771;SDS011;60894;42.544;1.516;2023-01-26T08:17:04;11.43;;;4.90;;
72771;SDS011;60894;42.544;1.516;2023-01-26T08:19:31;18.25;;;5.97;;
72771;SDS011;60894;42.544;1.516;2023-01-26T08:21:58;21.00;;;8.80;;
72771;SDS011;60894;42.544;1.516;2023-01-26T08:24:25;15.68;;;6.80;;
72771;SDS011;60894;42.544;1.516;2023-01-26T08:26:52;16.10;;;7.95;;
72771;SDS011;60894;42.544;1.516;2023-01-26T08:29:19;12.82;;;5.43;;
72771;SDS011;60894;42.544;1.516;2023-01-26T08:31:46;16.88;;;8.30;;
72771;SDS011;60894;42.544;1.516;2023-01-26T08:34:15;14.83;;;7.20;;
72771;SDS011;60894;42.544;1.516;2023-01-26T08:36:42;15.00;;;7.93;;
72771;SDS011;60894;42.544;1.516;2023-01-26T08:39:09;16.10;;;8.05;;
72771;SDS011;60894;42.544;1.516;2023-01-26T08:41:36;22.38;;;8.27;;
72771;SDS011;60894;42.544;1.516;2023-01-26T08:44:03;18.20;;;10.00;;
72771;SDS011;60894;42.544;1.516;2023-01-26T08:46:31;17.30;;;7.80;;
72771;SDS011;60894;42.544;1.516;2023-01-26T08:48:58;17.83;;;8.65;;
72771;SDS011;60894;42.544;1.516;2023-01-26T08:51:26;17.90;;;7.63;;
72771;SDS011;60894;42.544;1.516;2023-01-26T08:53:53;20.33;;;7.65;;
72771;SDS011;60894;42.544;1.516;2023-01-26T08:56:20;16.50;;;7.57;;
72771;SDS011;60894;42.544;1.516;2023-01-26T08:58:47;16.63;;;7.60;;
72771;SDS011;60894;42.544;1.516;2023-01-26T09:01:14;15.60;;;6.65;;
72771;SDS011;60894;42.544;1.516;2023-01-26T09:03:42;13.15;;;6.20;;
72771;SDS011;60894;42.544;1.516;2023-01-26T09:06:09;17.50;;;8.32;;
72771;SDS011;60894;42.544;1.516;2023-01-26T09:08:40;14.65;;;7.55;;
72771;SDS011;60894;42.544;1.516;2023-01-26T09:11:07;12.47;;;6.80;;
72771;SDS011;60894;42.544;1.516;2023-01-26T09:13:34;13.18;;;6.68;;
72771;SDS011;60894;42.544;1.516;2023-01-26T09:16:03;13.80;;;6.68;;
72771;SDS011;60894;42.544;1.516;2023-01-26T09:18:31;15.07;;;6.07;;
72771;SDS011;60894;42.544;1.516;2023-01-26T09:21:01;14.23;;;4.60;;
72771;SDS011;60894;42.544;1.516;2023-01-26T09:23:30;16.33;;;5.57;;
72771;SDS011;60894;42.544;1.516;2023-01-26T09:25:58;14.38;;;6.22;;
72771;SDS011;60894;42.544;1.516;2023-01-26T09:28:26;15.88;;;6.05;;
72771;SDS011;60894;42.544;1.516;2023-01-26T09:30:53;10.98;;;5.10;;
72771;SDS011;60894;42.544;1.516;2023-01-26T09:33:20;23.33;;;6.93;;
72771;SDS011;60894;42.544;1.516;2023-01-26T09:35:49;13.07;;;5.03;;
72771;SDS011;60894;42.544;1.516;2023-01-26T09:38:16;21.20;;;6.47;;
72771;SDS011;60894;42.544;1.516;2023-01-26T09:40:44;10.25;;;3.47;;
72771;SDS011;60894;42.544;1.516;2023-01-26T09:43:23;11.82;;;4.13;;
72771;SDS011;60894;42.544;1.516;2023-01-26T09:46:00;11.52;;;2.63;;
72771;SDS011;60894;42.544;1.516;2023-01-26T09:48:36;24.47;;;6.60;;
72771;SDS011;60894;42.544;1.516;2023-01-26T09:51:09;9.88;;;1.98;;
72771;SDS011;60894;42.544;1.516;2023-01-26T09:53:41;3.85;;;1.00;;
72771;SDS011;60894;42.544;1.516;2023-01-26T09:56:13;7.57;;;2.42;;
72771;SDS011;60894;42.544;1.516;2023-01-26T09:58:44;12.52;;;2.97;;
72771;SDS011;60894;42.544;1.516;2023-01-26T10:01:16;7.00;;;2.10;;
72771;SDS011;60894;42.544;1.516;2023-01-26T10:03:46;11.23;;;3.00;;
72771;SDS011;60894;42.544;1.516;2023-01-26T10:06:18;11.20;;;2.92;;
72771;SDS011;60894;42.544;1.516;2023-01-26T10:08:51;10.68;;;2.47;;
72771;SDS011;60894;42.544;1.516;2023-01-26T10:11:21;7.32;;;1.33;;
72771;SDS011;60894;42.544;1.516;2023-01-26T10:13:55;10.57;;;1.50;;
72771;SDS011;60894;42.544;1.516;2023-01-26T10:16:25;7.32;;;1.02;;
72771;SDS011;60894;42.544;1.516;2023-01-26T10:18:53;8.13;;;1.40;;
72771;SDS011;60894;42.544;1.516;2023-01-26T10:21:26;18.20;;;1.80;;
72771;SDS011;60894;42.544;1.516;2023-01-26T10:23:57;6.13;;;1.25;;
72771;SDS011;60894;42.544;1.516;2023-01-26T10:26:29;5.07;;;1.43;;
72771;SDS011;60894;42.544;1.516;2023-01-26T10:28:58;6.20;;;1.35;;
72771;SDS011;60894;42.544;1.516;2023-01-26T10:31:26;9.55;;;1.20;;
72771;SDS011;60894;42.544;1.516;2023-01-26T10:33:55;5.03;;;0.90;;
72771;SDS011;60894;42.544;1.516;2023-01-26T10:36:26;8.32;;;1.20;;
72771;SDS011;60894;42.544;1.516;2023-01-26T10:39:02;7.63;;;0.90;;
72771;SDS011;60894;42.544;1.516;2023-01-26T10:41:30;6.28;;;1.13;;
72771;SDS011;60894;42.544;1.516;2023-01-26T10:43:58;15.50;;;3.90;;
72771;SDS011;60894;42.544;1.516;2023-01-26T10:46:29;7.30;;;1.70;;
72771;SDS011;60894;42.544;1.516;2023-01-26T10:48:59;9.35;;;1.95;;
72771;SDS011;60894;42.544;1.516;2023-01-26T10:51:29;13.30;;;1.73;;
72771;SDS011;60894;42.544;1.516;2023-01-26T10:56:48;3.50;;;0.75;;
72771;SDS011;60894;42.544;1.516;2023-01-26T10:59:24;7.15;;;1.63;;
72771;SDS011;60894;42.544;1.516;2023-01-26T11:01:53;6.43;;;1.23;;
72771;SDS011;60894;42.544;1.516;2023-01-26T11:04:22;2.70;;;0.70;;
72771;SDS011;60894;42.544;1.516;2023-01-26T11:06:49;5.05;;;1.50;;
72771;SDS011;60894;42.544;1.516;2023-01-26T11:09:18;4.30;;;0.60;;
72771;SDS011;60894;42.544;1.516;2023-01-26T11:11:59;2.40;;;0.40;;
72771;SDS011;60894;42.544;1.516;2023-01-26T11:14:29;2.63;;;0.50;;
72771;SDS011;60894;42.544;1.516;2023-01-26T11:16:59;4.80;;;1.10;;
72771;SDS011;60894;42.544;1.516;2023-01-26T11:19:38;13.05;;;1.77;;
72771;SDS011;60894;42.544;1.516;2023-01-26T11:22:17;12.07;;;3.75;;
72771;SDS011;60894;42.544;1.516;2023-01-26T11:24:49;8.48;;;1.10;;
72771;SDS011;60894;42.544;1.516;2023-01-26T11:27:36;6.63;;;1.27;;
72771;SDS011;60894;42.544;1.516;2023-01-26T11:33:03;1.60;;;0.75;;
72771;SDS011;60894;42.544;1.516;2023-01-26T11:35:42;5.20;;;1.17;;
72771;SDS011;60894;42.544;1.516;2023-01-26T11:38:20;6.10;;;1.88;;
72771;SDS011;60894;42.544;1.516;2023-01-26T11:40:54;2.05;;;0.45;;
72771;SDS011;60894;42.544;1.516;2023-01-26T11:43:52;1.03;;;0.50;;
72771;SDS011;60894;42.544;1.516;2023-01-26T11:46:35;0.93;;;0.43;;
72771;SDS011;60894;42.544;1.516;2023-01-26T11:49:14;4.13;;;1.48;;
72771;SDS011;60894;42.544;1.516;2023-01-26T11:51:53;3.63;;;0.98;;
72771;SDS011;60894;42.544;1.516;2023-01-26T11:54:38;6.38;;;2.40;;
72771;SDS011;60894;42.544;1.516;2023-01-26T11:57:27;3.67;;;1.33;;
72771;SDS011;60894;42.544;1.516;2023-01-26T12:00:10;3.95;;;0.52;;
72771;SDS011;60894;42.544;1.516;2023-01-26T12:02:42;2.22;;;0.50;;
72771;SDS011;60894;42.544;1.516;2023-01-26T12:05:15;2.88;;;0.80;;
72771;SDS011;60894;42.544;1.516;2023-01-26T12:07:47;2.13;;;0.70;;
72771;SDS011;60894;42.544;1.516;2023-01-26T12:10:21;7.57;;;1.50;;
72771;SDS011;60894;42.544;1.516;2023-01-26T12:12:54;1.63;;;0.70;;
72771;SDS011;60894;42.544;1.516;2023-01-26T12:15:26;4.30;;;0.80;;
72771;SDS011;60894;42.544;1.516;2023-01-26T12:18:00;2.88;;;0.80;;
72771;SDS011;60894;42.544;1.516;2023-01-26T12:20:37;2.25;;;0.60;;
72771;SDS011;60894;42.544;1.516;2023-01-26T12:23:09;3.27;;;0.73;;
72771;SDS011;60894;42.544;1.516;2023-01-26T12:25:39;4.72;;;0.70;;
72771;SDS011;60894;42.544;1.516;2023-01-26T12:28:11;1.70;;;0.70;;
72771;SDS011;60894;42.544;1.516;2023-01-26T12:30:46;3.03;;;0.68;;
72771;SDS011;60894;42.544;1.516;2023-01-26T12:33:20;4.47;;;0.80;;
72771;SDS011;60894;42.544;1.516;2023-01-26T12:36:05;1.30;;;0.50;;
72771;SDS011;60894;42.544;1.516;2023-01-26T12:38:47;2.38;;;0.60;;
72771;SDS011;60894;42.544;1.516;2023-01-26T12:41:27;3.75;;;0.70;;
72771;SDS011;60894;42.544;1.516;2023-01-26T12:44:07;3.63;;;0.70;;
72771;SDS011;60894;42.544;1.516;2023-01-26T12:46:44;2.10;;;0.70;;
72771;SDS011;60894;42.544;1.516;2023-01-26T12:49:19;0.93;;;0.40;;
72771;SDS011;60894;42.544;1.516;2023-01-26T12:51:49;5.95;;;1.27;;
72771;SDS011;60894;42.544;1.516;2023-01-26T12:54:24;2.92;;;0.70;;
72771;SDS011;60894;42.544;1.516;2023-01-26T12:56:56;3.38;;;1.08;;
72771;SDS011;60894;42.544;1.516;2023-01-26T12:59:28;3.42;;;0.73;;
72771;SDS011;60894;42.544;1.516;2023-01-26T13:01:58;3.90;;;1.17;;
72771;SDS011;60894;42.544;1.516;2023-01-26T13:04:27;4.10;;;0.90;;
72771;SDS011;60894;42.544;1.516;2023-01-26T13:07:00;1.15;;;0.50;;
72771;SDS011;60894;42.544;1.516;2023-01-26T13:09:29;2.63;;;1.10;;
72771;SDS011;60894;42.544;1.516;2023-01-26T13:11:56;2.95;;;0.75;;
72771;SDS011;60894;42.544;1.516;2023-01-26T13:14:25;7.57;;;1.73;;
72771;SDS011;60894;42.544;1.516;2023-01-26T13:16:57;2.78;;;1.00;;
72771;SDS011;60894;42.544;1.516;2023-01-26T13:20:00;2.03;;;0.50;;
72771;SDS011;60894;42.544;1.516;2023-01-26T13:22:47;2.95;;;1.17;;
72771;SDS011;60894;42.544;1.516;2023-01-26T13:25:15;4.30;;;1.38;;
72771;SDS011;60894;42.544;1.516;2023-01-26T13:27:44;4.63;;;1.40;;
72771;SDS011;60894;42.544;1.516;2023-01-26T13:30:27;2.85;;;0.60;;
72771;SDS011;60894;42.544;1.516;2023-01-26T13:33:10;0.88;;;0.50;;
72771;SDS011;60894;42.544;1.516;2023-01-26T13:35:42;5.55;;;1.20;;
72771;SDS011;60894;42.544;1.516;2023-01-26T13:38:16;1.20;;;0.57;;
72771;SDS011;60894;42.544;1.516;2023-01-26T13:40:47;2.67;;;1.30;;
72771;SDS011;60894;42.544;1.516;2023-01-26T13:43:20;4.88;;;1.42;;
72771;SDS011;60894;42.544;1.516;2023-01-26T13:45:55;3.85;;;1.10;;
72771;SDS011;60894;42.544;1.516;2023-01-26T13:48:40;4.15;;;1.23;;
72771;SDS011;60894;42.544;1.516;2023-01-26T13:51:12;5.68;;;1.38;;
72771;SDS011;60894;42.544;1.516;2023-01-26T13:53:42;2.77;;;0.80;;
72771;SDS011;60894;42.544;1.516;2023-01-26T13:56:19;3.88;;;1.00;;
72771;SDS011;60894;42.544;1.516;2023-01-26T13:58:48;2.75;;;1.02;;
72771;SDS011;60894;42.544;1.516;2023-01-26T14:01:16;2.75;;;0.63;;
72771;SDS011;60894;42.544;1.516;2023-01-26T14:03:43;7.57;;;1.42;;
72771;SDS011;60894;42.544;1.516;2023-01-26T14:06:13;3.57;;;0.70;;
72771;SDS011;60894;42.544;1.516;2023-01-26T14:08:44;4.30;;;1.40;;
72771;SDS011;60894;42.544;1.516;2023-01-26T14:11:17;2.78;;;1.00;;
72771;SDS011;60894;42.544;1.516;2023-01-26T14:13:47;3.00;;;1.10;;
72771;SDS011;60894;42.544;1.516;2023-01-26T14:16:21;2.78;;;0.65;;
72771;SDS011;60894;42.544;1.516;2023-01-26T14:18:50;3.07;;;1.10;;
72771;SDS011;60894;42.544;1.516;2023-01-26T14:21:20;4.85;;;0.80;;
72771;SDS011;60894;42.544;1.516;2023-01-26T14:23:53;1.13;;;0.70;;
72771;SDS011;60894;42.544;1.516;2023-01-26T14:26:22;3.15;;;0.68;;
72771;SDS011;60894;42.544;1.516;2023-01-26T14:28:55;6.88;;;1.35;;
72771;SDS011;60894;42.544;1.516;2023-01-26T14:31:25;4.90;;;1.10;;
72771;SDS011;60894;42.544;1.516;2023-01-26T14:33:53;3.97;;;1.08;;
72771;SDS011;60894;42.544;1.516;2023-01-26T14:36:25;6.10;;;1.63;;
72771;SDS011;60894;42.544;1.516;2023-01-26T14:38:53;8.60;;;2.58;;
72771;SDS011;60894;42.544;1.516;2023-01-26T14:41:22;6.75;;;1.50;;
72771;SDS011;60894;42.544;1.516;2023-01-26T14:43:51;4.63;;;1.20;;
72771;SDS011;60894;42.544;1.516;2023-01-26T14:46:21;4.65;;;1.15;;
72771;SDS011;60894;42.544;1.516;2023-01-26T14:48:54;1.92;;;0.63;;
72771;SDS011;60894;42.544;1.516;2023-01-26T14:51:26;3.42;;;0.90;;
72771;SDS011;60894;42.544;1.516;2023-01-26T14:53:56;1.15;;;0.60;;
72771;SDS011;60894;42.544;1.516;2023-01-26T14:56:28;7.23;;;0.80;;
72771;SDS011;60894;42.544;1.516;2023-01-26T14:58:58;0.75;;;0.50;;
72771;SDS011;60894;42.544;1.516;2023-01-26T15:01:26;2.72;;;0.70;;
72771;SDS011;60894;42.544;1.516;2023-01-26T15:03:58;1.85;;;0.82;;
72771;SDS011;60894;42.544;1.516;2023-01-26T15:06:29;2.72;;;0.80;;
72771;SDS011;60894;42.544;1.516;2023-01-26T15:08:58;3.43;;;0.73;;
72771;SDS011;60894;42.544;1.516;2023-01-26T15:11:29;0.50;;;0.20;;
72771;SDS011;60894;42.544;1.516;2023-01-26T15:17:25;4.97;;;0.95;;